Time;durP1;ratioP1;P1;durP2;ratioP2;P2;SDS_P1;SDS_P2;PMS_P1;PMS_P2;Temp;Humidity;BMP_temperature;BMP_pressure;BME280_temperature;BME280_humidity;BME280_pressure;Samples;Min_cycle;Max_cycle;Signal;HPM_P1;HPM_P2
2024/04/03 00:01:45;;;;;;;1.27;0.17;;;12.80;99.90;;;;;;4230115;28;20108;-52
2024/04/03 00:03:46;;;;;;;0.47;0.10;;;12.80;99.90;;;;;;4247239;27;20047;-53
2024/04/03 00:05:48;;;;;;;0.05;0.03;;;12.80;99.90;;;;;;4247383;27;20205;-52
2024/04/03 00:07:51;;;;;;;0.00;0.00;;;12.80;99.90;;;;;;4247057;27;20054;-52
2024/04/03 00:09:52;;;;;;;0.10;0.10;;;12.70;99.90;;;;;;4246666;27;20436;-54
2024/04/03 00:11:54;;;;;;;0.10;0.10;;;12.70;99.90;;;;;;4229786;28;20059;-57
2024/04/03 00:13:56;;;;;;;0.10;0.10;;;12.60;99.90;;;;;;4247118;27;20511;-55
2024/04/03 00:15:57;;;;;;;2.45;0.30;;;12.70;99.90;;;;;;4230210;28;20077;-54
2024/04/03 00:17:58;;;;;;;0.17;0.10;;;12.60;99.90;;;;;;4247060;27;20039;-55
2024/04/03 00:20:00;;;;;;;0.40;0.40;;;12.50;99.90;;;;;;4229972;28;20172;-54
2024/04/03 00:22:01;;;;;;;0.10;0.10;;;12.50;99.90;;;;;;4246566;27;20051;-54
2024/04/03 00:24:03;;;;;;;0.10;0.10;;;12.50;99.90;;;;;;4229748;28;20043;-54
2024/04/03 00:26:04;;;;;;;0.68;0.13;;;12.50;99.90;;;;;;4246562;27;20047;-54
2024/04/03 00:28:05;;;;;;;0.32;0.10;;;12.40;99.90;;;;;;4246883;27;20039;-53
2024/04/03 00:30:09;;;;;;;0.45;0.10;;;12.40;99.90;;;;;;4229575;28;20043;-53
2024/04/03 00:32:10;;;;;;;0.13;0.08;;;12.40;99.90;;;;;;4246690;27;20091;-53
2024/04/03 00:34:11;;;;;;;0.65;0.20;;;12.30;99.90;;;;;;4247002;27;20053;-54
2024/04/03 00:36:12;;;;;;;0.00;0.00;;;12.40;99.90;;;;;;4247155;27;20039;-60
2024/04/03 00:38:13;;;;;;;1.08;0.43;;;12.40;99.90;;;;;;4247345;27;20401;-54
2024/04/03 00:40:14;;;;;;;0.10;0.10;;;12.40;99.90;;;;;;4246487;27;20043;-54
2024/04/03 00:42:15;;;;;;;0.10;0.10;;;12.40;99.90;;;;;;4246952;27;20420;-53
2024/04/03 00:44:17;;;;;;;0.98;0.05;;;12.30;99.90;;;;;;4246906;27;20051;-54
2024/04/03 00:46:20;;;;;;;0.00;0.00;;;12.40;99.90;;;;;;4247067;27;20054;-54
2024/04/03 00:48:22;;;;;;;0.00;0.00;;;12.40;99.90;;;;;;4247346;27;20054;-54
2024/04/03 00:50:23;;;;;;;0.05;0.05;;;12.50;99.90;;;;;;4246716;27;20527;-55
2024/04/03 00:52:24;;;;;;;0.22;0.17;;;12.50;99.90;;;;;;4247003;27;20050;-59
2024/04/03 00:54:26;;;;;;;0.20;0.20;;;12.50;99.90;;;;;;4246899;27;20117;-54
2024/04/03 00:56:27;;;;;;;1.10;0.20;;;12.40;99.90;;;;;;4246539;27;20120;-59
2024/04/03 00:58:28;;;;;;;0.03;0.03;;;12.40;99.90;;;;;;4246877;27;20046;-52
2024/04/03 01:00:29;;;;;;;0.10;0.10;;;12.40;99.90;;;;;;4246720;27;20054;-54
2024/04/03 01:02:32;;;;;;;0.20;0.10;;;12.40;99.90;;;;;;4230036;28;20066;-58
2024/04/03 01:04:33;;;;;;;0.08;0.08;;;12.40;99.90;;;;;;4247021;27;20450;-58
2024/04/03 01:06:35;;;;;;;0.05;0.00;;;12.40;99.90;;;;;;4246444;28;20035;-54
2024/04/03 01:08:36;;;;;;;0.30;0.10;;;12.40;99.90;;;;;;4246946;28;20254;-54
2024/04/03 01:10:37;;;;;;;0.00;0.00;;;12.50;99.90;;;;;;4229039;28;20505;-54
2024/04/03 01:12:39;;;;;;;0.20;0.13;;;12.50;99.90;;;;;;4246469;28;20043;-53
2024/04/03 01:14:40;;;;;;;0.28;0.17;;;12.50;99.90;;;;;;4246529;28;20073;-54
2024/04/03 01:16:43;;;;;;;0.38;0.03;;;12.30;99.90;;;;;;4246245;28;20508;-56
2024/04/03 01:18:46;;;;;;;0.10;0.10;;;12.30;99.90;;;;;;4246172;28;20761;-54
2024/04/03 01:20:47;;;;;;;0.00;0.00;;;12.20;99.90;;;;;;4247151;27;20043;-54
2024/04/03 01:22:48;;;;;;;0.20;0.20;;;12.20;99.90;;;;;;4249421;27;20051;-53
2024/04/03 01:24:50;;;;;;;0.03;0.03;;;12.20;99.90;;;;;;4249513;27;20039;-53
2024/04/03 01:26:52;;;;;;;0.10;0.10;;;12.20;99.90;;;;;;4250318;27;20050;-55
2024/04/03 01:28:53;;;;;;;0.52;0.10;;;12.20;99.90;;;;;;4249997;27;20040;-55
2024/04/03 01:30:54;;;;;;;0.10;0.05;;;12.20;99.90;;;;;;4249689;27;20044;-53
2024/04/03 01:32:55;;;;;;;0.13;0.10;;;12.20;99.90;;;;;;4249648;27;20100;-54
2024/04/03 01:34:56;;;;;;;2.38;0.57;;;12.20;99.90;;;;;;4249577;27;20051;-54
2024/04/03 01:36:57;;;;;;;0.13;0.10;;;12.20;99.90;;;;;;4249455;27;20047;-54
2024/04/03 01:38:59;;;;;;;0.00;0.00;;;12.00;99.90;;;;;;4249406;27;20050;-58
2024/04/03 01:41:01;;;;;;;0.03;0.03;;;12.10;99.90;;;;;;4249569;27;20058;-56
2024/04/03 01:43:02;;;;;;;0.10;0.10;;;12.00;99.90;;;;;;4249636;27;20047;-56
2024/04/03 01:45:04;;;;;;;0.00;0.00;;;12.00;99.90;;;;;;4249290;27;20057;-54
2024/04/03 01:47:05;;;;;;;0.05;0.05;;;12.10;99.90;;;;;;4249313;27;20818;-54
2024/04/03 01:49:07;;;;;;;0.17;0.08;;;12.00;99.90;;;;;;4249111;27;20094;-54
2024/04/03 01:51:08;;;;;;;0.15;0.13;;;12.00;99.90;;;;;;4249701;27;20085;-54
2024/04/03 01:53:09;;;;;;;0.25;0.10;;;12.00;99.90;;;;;;4249489;27;20081;-55
2024/04/03 01:55:10;;;;;;;0.00;0.00;;;12.00;99.90;;;;;;4249129;27;20050;-54
2024/04/03 01:57:13;;;;;;;0.55;0.20;;;12.00;99.90;;;;;;4248956;27;20096;-54
2024/04/03 01:59:14;;;;;;;0.10;0.10;;;12.10;99.90;;;;;;4248940;27;20047;-54
2024/04/03 02:01:15;;;;;;;0.63;0.08;;;12.10;99.90;;;;;;4248882;27;20054;-54
2024/04/03 02:03:17;;;;;;;0.00;0.00;;;12.00;99.90;;;;;;4249161;27;20412;-54
2024/04/03 02:05:18;;;;;;;0.15;0.10;;;12.10;99.90;;;;;;4232300;28;20051;-54
2024/04/03 02:07:19;;;;;;;0.10;0.10;;;12.10;99.90;;;;;;4248633;27;20044;-54
2024/04/03 02:09:20;;;;;;;2.22;0.10;;;12.00;99.90;;;;;;4249072;27;20477;-53
2024/04/03 02:11:21;;;;;;;0.28;0.20;;;11.90;99.90;;;;;;4248983;27;20043;-54
2024/04/03 02:13:24;;;;;;;0.22;0.00;;;11.90;99.90;;;;;;4231875;28;20477;-54
2024/04/03 02:15:25;;;;;;;0.20;0.20;;;11.90;99.90;;;;;;4248920;27;20051;-54
2024/04/03 02:17:26;;;;;;;0.15;0.10;;;11.90;99.90;;;;;;4249181;27;20407;-54
2024/04/03 02:19:27;;;;;;;0.10;0.10;;;11.90;99.90;;;;;;4249125;27;20055;-58
2024/04/03 02:21:28;;;;;;;0.00;0.00;;;11.80;99.90;;;;;;4248512;27;20412;-58
2024/04/03 02:23:30;;;;;;;0.70;0.05;;;11.80;99.90;;;;;;4248625;27;20050;-53
2024/04/03 02:25:31;;;;;;;0.20;0.20;;;11.80;99.90;;;;;;4248729;27;20047;-57
2024/04/03 02:27:32;;;;;;;0.73;0.20;;;11.90;99.90;;;;;;4249099;27;20519;-54
2024/04/03 02:29:35;;;;;;;0.00;0.00;;;11.90;99.90;;;;;;4248963;27;20050;-54
2024/04/03 02:31:36;;;;;;;0.30;0.10;;;12.00;99.90;;;;;;4248486;27;20043;-54
2024/04/03 02:33:38;;;;;;;3.00;0.10;;;11.90;99.90;;;;;;4248468;27;20458;-53
2024/04/03 02:35:39;;;;;;;0.38;0.20;;;11.90;99.90;;;;;;4248465;27;20054;-54
2024/04/03 02:37:40;;;;;;;0.68;0.17;;;11.90;99.90;;;;;;4248129;27;20385;-54
2024/04/03 02:39:41;;;;;;;0.20;0.20;;;11.90;99.90;;;;;;4231531;28;20055;-54
2024/04/03 02:41:44;;;;;;;0.22;0.10;;;11.90;99.90;;;;;;4249023;27;20057;-54
2024/04/03 02:43:45;;;;;;;0.32;0.10;;;11.90;99.90;;;;;;4248904;27;20512;-54
2024/04/03 02:45:54;;;;;;;0.10;0.10;;;11.90;99.90;;;;;;4248299;27;20095;-51
2024/04/03 02:47:57;;;;;;;0.30;0.10;;;11.90;99.90;;;;;;4248462;27;20043;-54
2024/04/03 02:49:58;;;;;;;0.00;0.00;;;11.90;99.90;;;;;;4231309;28;20137;-54
2024/04/03 02:51:59;;;;;;;0.00;0.00;;;12.00;99.90;;;;;;4248367;27;20488;-54
2024/04/03 02:54:00;;;;;;;0.13;0.13;;;12.00;99.90;;;;;;4231229;28;20047;-55
2024/04/03 02:56:03;;;;;;;1.00;0.50;;;12.00;99.90;;;;;;4248468;27;20096;-54
2024/04/03 02:58:04;;;;;;;0.10;0.10;;;12.00;99.90;;;;;;4248252;27;20043;-54
2024/04/03 03:00:07;;;;;;;0.13;0.13;;;11.90;99.90;;;;;;4248087;27;20043;-55
2024/04/03 03:02:09;;;;;;;0.00;0.00;;;12.00;99.90;;;;;;4248239;27;20047;-54
2024/04/03 03:04:11;;;;;;;0.05;0.05;;;12.00;99.90;;;;;;4248323;27;20081;-56
2024/04/03 03:06:12;;;;;;;0.13;0.08;;;11.90;99.90;;;;;;4248307;27;20047;-58
2024/04/03 03:08:13;;;;;;;0.05;0.05;;;12.00;99.90;;;;;;4248504;27;20047;-54
2024/04/03 03:10:14;;;;;;;0.20;0.13;;;12.00;99.90;;;;;;4248100;27;20069;-53
2024/04/03 03:12:15;;;;;;;0.00;0.00;;;12.00;99.90;;;;;;4248043;27;20042;-53
2024/04/03 03:14:17;;;;;;;0.13;0.13;;;11.90;99.90;;;;;;4247977;27;20055;-54
2024/04/03 03:16:21;;;;;;;0.10;0.10;;;11.90;99.90;;;;;;4247893;27;20484;-57
2024/04/03 03:18:25;;;;;;;0.13;0.13;;;11.90;99.90;;;;;;4248061;27;20043;-54
2024/04/03 03:20:26;;;;;;;0.57;0.38;;;11.90;99.90;;;;;;4247892;27;20407;-54
2024/04/03 03:22:29;;;;;;;0.85;0.10;;;11.90;99.90;;;;;;4247754;27;20054;-54
2024/04/03 03:24:30;;;;;;;0.30;0.10;;;12.00;99.90;;;;;;4248009;27;20103;-53
2024/04/03 03:26:31;;;;;;;0.10;0.10;;;12.00;99.90;;;;;;4248015;27;20043;-54
2024/04/03 03:28:32;;;;;;;0.30;0.13;;;12.10;99.90;;;;;;4248142;27;20438;-53
2024/04/03 03:30:33;;;;;;;0.10;0.10;;;12.00;99.90;;;;;;4248263;27;20043;-54
2024/04/03 03:32:34;;;;;;;0.15;0.10;;;12.00;99.90;;;;;;4248367;27;20043;-54
2024/04/03 03:34:37;;;;;;;0.10;0.10;;;11.90;99.90;;;;;;4247476;27;20043;-54
2024/04/03 03:36:38;;;;;;;0.03;0.03;;;11.90;99.90;;;;;;4247881;27;20073;-55
2024/04/03 03:38:39;;;;;;;0.10;0.10;;;12.00;99.90;;;;;;4247670;27;20039;-54
2024/04/03 03:40:40;;;;;;;0.57;0.10;;;12.00;99.90;;;;;;4247736;27;20613;-53
2024/04/03 03:42:41;;;;;;;0.32;0.10;;;12.00;99.90;;;;;;4230390;28;20127;-55
2024/04/03 03:44:42;;;;;;;0.10;0.10;;;12.00;99.90;;;;;;4247269;27;20058;-56
2024/04/03 03:46:43;;;;;;;0.00;0.00;;;12.10;99.90;;;;;;4247569;27;20050;-54
2024/04/03 03:53:32;;;;;;;;;;;11.90;99.90;;;;;;4247916;27;20047;-54
2024/04/03 03:55:33;;;;;;;0.00;0.00;;;11.90;99.90;;;;;;4247664;27;19988;-54
2024/04/03 03:57:34;;;;;;;0.20;0.00;;;12.00;99.90;;;;;;4247690;27;20356;-54
2024/04/03 03:59:35;;;;;;;0.85;0.30;;;12.00;99.90;;;;;;4230295;28;20050;-55
2024/04/03 04:01:36;;;;;;;0.10;0.10;;;11.90;99.90;;;;;;4246940;27;20405;-54
2024/04/03 04:03:37;;;;;;;0.10;0.00;;;12.00;99.90;;;;;;4246672;27;20047;-54
2024/04/03 04:05:39;;;;;;;0.30;0.10;;;12.00;99.90;;;;;;4247178;27;20044;-54
2024/04/03 04:07:41;;;;;;;3.40;0.17;;;12.00;99.90;;;;;;4246969;27;20047;-54
2024/04/03 04:09:46;;;;;;;0.28;0.08;;;11.90;99.90;;;;;;4246824;27;20039;-54
2024/04/03 04:11:47;;;;;;;0.03;0.00;;;11.90;99.90;;;;;;4246839;27;20047;-55
2024/04/03 04:13:48;;;;;;;0.00;0.00;;;11.90;99.90;;;;;;4247146;27;20043;-54
2024/04/03 04:15:51;;;;;;;0.20;0.20;;;11.90;99.90;;;;;;4247380;27;20047;-55
2024/04/03 04:17:52;;;;;;;0.08;0.08;;;11.90;99.90;;;;;;4246984;27;20043;-56
2024/04/03 04:19:53;;;;;;;0.10;0.10;;;11.80;99.90;;;;;;4247662;27;20047;-54
2024/04/03 04:21:54;;;;;;;0.20;0.10;;;11.90;99.90;;;;;;4247289;27;20062;-53
2024/04/03 04:23:57;;;;;;;0.38;0.38;;;11.90;99.90;;;;;;4246898;27;20115;-52
2024/04/03 04:26:02;;;;;;;0.10;0.10;;;11.90;99.90;;;;;;4246773;27;20476;-54
2024/04/03 04:28:03;;;;;;;1.10;0.47;;;11.90;99.90;;;;;;4246899;27;20445;-52
2024/04/03 04:30:05;;;;;;;0.10;0.10;;;12.00;99.90;;;;;;4246838;27;20157;-55
2024/04/03 04:32:07;;;;;;;0.28;0.15;;;12.00;99.90;;;;;;4246676;27;20047;-58
2024/04/03 04:34:08;;;;;;;0.20;0.00;;;12.00;99.90;;;;;;4247208;27;20100;-52
2024/04/03 04:36:10;;;;;;;0.55;0.10;;;12.00;99.90;;;;;;4246926;27;20072;-51
2024/04/03 04:38:11;;;;;;;0.00;0.00;;;12.00;99.90;;;;;;4247058;27;20043;-52
2024/04/03 04:40:15;;;;;;;0.10;0.10;;;12.00;99.90;;;;;;4247040;27;20050;-60
2024/04/03 04:42:16;;;;;;;0.30;0.10;;;12.00;99.90;;;;;;4246717;27;20046;-53
2024/04/03 04:44:18;;;;;;;0.52;0.20;;;12.00;99.90;;;;;;4246557;27;20051;-52
2024/04/03 04:46:20;;;;;;;0.25;0.20;;;12.00;99.90;;;;;;4264039;27;20043;-54
2024/04/03 04:48:21;;;;;;;1.85;0.50;;;11.90;99.90;;;;;;4246316;27;20054;-53
2024/04/03 04:50:22;;;;;;;0.47;0.10;;;12.00;99.90;;;;;;4246649;27;20043;-54
2024/04/03 04:52:24;;;;;;;0.10;0.10;;;12.00;99.90;;;;;;4246670;27;20046;-53
2024/04/03 04:54:26;;;;;;;0.30;0.15;;;12.10;99.90;;;;;;4246653;27;20047;-53
2024/04/03 04:56:28;;;;;;;0.00;0.00;;;12.10;99.90;;;;;;4245897;27;20413;-53
2024/04/03 04:58:30;;;;;;;0.47;0.10;;;12.10;99.90;;;;;;4246437;27;20051;-55
2024/04/03 05:00:31;;;;;;;0.10;0.10;;;12.10;99.90;;;;;;4246533;27;20047;-53
2024/04/03 05:02:32;;;;;;;0.00;0.00;;;12.00;99.90;;;;;;4246453;27;20137;-54
2024/04/03 05:04:33;;;;;;;0.20;0.10;;;12.00;99.90;;;;;;4246578;27;20047;-54
2024/04/03 05:06:35;;;;;;;0.10;0.10;;;12.00;99.90;;;;;;4246589;27;20040;-58
2024/04/03 05:08:36;;;;;;;0.25;0.10;;;12.10;99.90;;;;;;4246816;28;20506;-56
2024/04/03 05:10:37;;;;;;;0.30;0.05;;;12.10;99.90;;;;;;4246894;28;20047;-54
2024/04/03 05:12:42;;;;;;;0.00;0.00;;;12.10;99.90;;;;;;4246553;28;20049;-54
2024/04/03 05:14:43;;;;;;;0.00;0.00;;;12.00;99.90;;;;;;4229308;28;20792;-53
2024/04/03 05:16:44;;;;;;;0.00;0.00;;;12.00;99.90;;;;;;4245998;28;20055;-53
2024/04/03 05:18:46;;;;;;;0.15;0.10;;;11.90;99.90;;;;;;4246295;28;20118;-53
2024/04/03 05:20:47;;;;;;;0.00;0.00;;;11.90;99.90;;;;;;4246230;28;20051;-54
2024/04/03 05:22:48;;;;;;;0.05;0.05;;;12.00;99.90;;;;;;4246028;28;20047;-54
2024/04/03 05:24:51;;;;;;;0.10;0.10;;;12.00;99.90;;;;;;4246309;28;20047;-53
2024/04/03 05:26:52;;;;;;;0.52;0.52;;;12.00;99.90;;;;;;4229164;28;20044;-54
2024/04/03 05:28:54;;;;;;;0.20;0.05;;;12.00;99.90;;;;;;4246327;28;20039;-54
2024/04/03 05:31:01;;;;;;;0.28;0.00;;;12.00;99.90;;;;;;4245754;28;20122;-54
2024/04/03 05:33:04;;;;;;;0.00;0.00;;;12.00;99.90;;;;;;4263280;27;20076;-53
2024/04/03 05:35:06;;;;;;;0.00;0.00;;;11.90;99.90;;;;;;4246786;28;20051;-53
2024/04/03 05:37:07;;;;;;;0.35;0.03;;;12.00;99.90;;;;;;4246403;28;20047;-54
2024/04/03 05:39:08;;;;;;;0.00;0.00;;;12.00;99.90;;;;;;4246236;28;20043;-54
2024/04/03 05:41:09;;;;;;;0.10;0.00;;;12.00;99.90;;;;;;4228948;28;20077;-54
2024/04/03 05:43:10;;;;;;;0.00;0.00;;;12.00;99.90;;;;;;4246230;28;20563;-53
2024/04/03 05:45:13;;;;;;;0.10;0.08;;;12.00;99.90;;;;;;4245639;28;20054;-53
2024/04/03 05:47:14;;;;;;;0.30;0.20;;;11.90;99.90;;;;;;4245890;28;20051;-53
2024/04/03 05:49:15;;;;;;;0.00;0.00;;;11.90;99.90;;;;;;4246285;28;20051;-52
2024/04/03 05:51:17;;;;;;;0.08;0.08;;;12.00;99.90;;;;;;4245946;28;20044;-56
2024/04/03 05:53:18;;;;;;;6.32;0.30;;;12.00;99.90;;;;;;4229557;28;20572;-53
2024/04/03 05:55:19;;;;;;;0.28;0.10;;;12.00;99.90;;;;;;4246465;28;20049;-54
2024/04/03 05:57:20;;;;;;;0.00;0.00;;;12.00;99.90;;;;;;4246280;28;20050;-54
2024/04/03 05:59:22;;;;;;;0.22;0.10;;;12.10;99.90;;;;;;4246505;28;20051;-54
2024/04/03 06:01:24;;;;;;;0.00;0.00;;;12.20;99.90;;;;;;4246207;28;20127;-53
2024/04/03 06:03:26;;;;;;;0.00;0.00;;;12.20;99.90;;;;;;4246061;28;20043;-53
2024/04/03 06:05:27;;;;;;;0.08;0.08;;;12.20;99.90;;;;;;4245967;28;20385;-52
2024/04/03 06:07:28;;;;;;;0.00;0.00;;;12.30;99.90;;;;;;4248076;27;20430;-52
2024/04/03 06:09:29;;;;;;;1.42;0.10;;;12.30;99.90;;;;;;4249243;27;20047;-53
2024/04/03 06:11:30;;;;;;;0.00;0.00;;;12.20;99.90;;;;;;4249064;27;20047;-53
2024/04/03 06:13:32;;;;;;;0.17;0.10;;;12.20;99.90;;;;;;4249268;27;20047;-59
2024/04/03 06:15:34;;;;;;;0.57;0.55;;;12.20;99.90;;;;;;4232330;28;20098;-54
2024/04/03 06:17:36;;;;;;;0.00;0.00;;;12.30;99.90;;;;;;4249563;27;20043;-55
2024/04/03 06:19:37;;;;;;;0.20;0.10;;;12.30;99.90;;;;;;4249051;27;20051;-56
2024/04/03 06:21:39;;;;;;;0.30;0.30;;;12.40;99.90;;;;;;4249306;27;20051;-56
2024/04/03 06:23:40;;;;;;;0.05;0.05;;;12.40;99.90;;;;;;4249499;27;20043;-53
2024/04/03 06:25:41;;;;;;;0.28;0.10;;;12.40;99.90;;;;;;4249570;27;20051;-54
2024/04/03 06:27:43;;;;;;;0.10;0.00;;;12.50;99.90;;;;;;4249091;27;20469;-53
2024/04/03 06:29:44;;;;;;;0.00;0.00;;;12.50;99.90;;;;;;4249106;27;20054;-60
2024/04/03 06:31:47;;;;;;;0.10;0.10;;;12.40;99.90;;;;;;4232700;28;20051;-58
2024/04/03 06:33:52;;;;;;;0.05;0.05;;;12.40;99.90;;;;;;4249153;27;20051;-53
2024/04/03 06:35:53;;;;;;;0.10;0.10;;;12.40;99.90;;;;;;4249466;27;20051;-54
2024/04/03 06:37:55;;;;;;;0.28;0.10;;;12.40;99.90;;;;;;4249035;27;20039;-55
2024/04/03 06:39:57;;;;;;;0.00;0.00;;;12.40;99.90;;;;;;4249497;27;20155;-59
2024/04/03 06:41:58;;;;;;;0.00;0.00;;;12.30;99.90;;;;;;4249095;27;20424;-53
2024/04/03 06:43:59;;;;;;;0.30;0.30;;;12.30;99.90;;;;;;4248683;27;20469;-62
2024/04/03 06:46:00;;;;;;;0.73;0.45;;;12.30;99.90;;;;;;4248998;27;20523;-53
2024/04/03 06:48:03;;;;;;;0.00;0.00;;;12.40;99.90;;;;;;4249185;27;20057;-58
2024/04/03 06:50:06;;;;;;;0.00;0.00;;;12.40;99.90;;;;;;4248974;27;20063;-54
2024/04/03 06:52:07;;;;;;;0.10;0.10;;;12.40;99.90;;;;;;4248721;27;20039;-55
2024/04/03 06:54:09;;;;;;;0.00;0.00;;;12.40;99.90;;;;;;4248420;27;20047;-54
2024/04/03 06:56:10;;;;;;;0.00;0.00;;;12.40;99.90;;;;;;4248440;27;20490;-53
2024/04/03 06:58:11;;;;;;;0.20;0.10;;;12.50;99.90;;;;;;4230906;28;20101;-53
2024/04/03 07:00:13;;;;;;;0.00;0.00;;;12.50;99.90;;;;;;4248186;27;20047;-54
2024/04/03 07:02:14;;;;;;;0.00;0.00;;;12.50;99.90;;;;;;4248417;27;20073;-54
2024/04/03 07:04:15;;;;;;;0.20;0.10;;;12.50;99.90;;;;;;4248298;27;20139;-54
2024/04/03 07:06:18;;;;;;;0.10;0.00;;;12.40;99.90;;;;;;4248140;27;20133;-53
2024/04/03 07:08:19;;;;;;;0.60;0.20;;;12.50;99.90;;;;;;4248345;27;20050;-54
2024/04/03 07:10:20;;;;;;;0.00;0.00;;;12.50;99.90;;;;;;4248187;27;20191;-54
2024/04/03 07:12:21;;;;;;;0.10;0.10;;;12.50;99.90;;;;;;4247953;27;20050;-61
2024/04/03 07:14:22;;;;;;;0.20;0.10;;;12.60;99.90;;;;;;4248398;27;20502;-54
2024/04/03 07:16:24;;;;;;;0.10;0.08;;;12.50;99.90;;;;;;4248400;27;20059;-53
2024/04/03 07:18:25;;;;;;;0.00;0.00;;;12.60;99.90;;;;;;4247507;27;20086;-52
2024/04/03 07:20:28;;;;;;;0.75;0.22;;;12.70;99.90;;;;;;4248022;27;20469;-54
2024/04/03 07:22:31;;;;;;;0.10;0.10;;;12.60;99.90;;;;;;4247552;27;20123;-53
2024/04/03 07:24:32;;;;;;;0.20;0.05;;;12.70;99.90;;;;;;4247732;27;20043;-54
2024/04/03 07:26:33;;;;;;;0.68;0.10;;;12.70;99.90;;;;;;4247460;27;20047;-53
2024/04/03 07:28:35;;;;;;;0.20;0.20;;;12.70;99.90;;;;;;4248138;27;20496;-53
2024/04/03 07:30:36;;;;;;;0.00;0.00;;;12.80;99.90;;;;;;4247952;27;20093;-53
2024/04/03 07:32:37;;;;;;;0.35;0.05;;;12.80;99.90;;;;;;4248117;27;20485;-54
2024/04/03 07:34:38;;;;;;;1.20;0.20;;;12.70;99.90;;;;;;4247886;27;20119;-54
2024/04/03 07:36:41;;;;;;;0.20;0.17;;;12.70;99.90;;;;;;4247856;27;20043;-53
2024/04/03 07:38:44;;;;;;;0.98;0.95;;;12.80;99.90;;;;;;4247973;27;20099;-52
2024/04/03 07:40:48;;;;;;;0.20;0.20;;;12.70;99.90;;;;;;4247633;27;20051;-55
2024/04/03 07:42:49;;;;;;;0.00;0.00;;;12.80;99.90;;;;;;4247628;27;20051;-55
2024/04/03 07:44:50;;;;;;;0.00;0.00;;;12.80;99.90;;;;;;4247699;27;20050;-55
2024/04/03 07:46:52;;;;;;;0.43;0.43;;;12.90;99.90;;;;;;4247502;27;20074;-53
2024/04/03 07:48:53;;;;;;;0.20;0.13;;;13.00;99.90;;;;;;4247272;27;20043;-54
2024/04/03 07:51:01;;;;;;;0.20;0.20;;;13.00;99.90;;;;;;4247906;27;20424;-57
2024/04/03 07:53:02;;;;;;;0.20;0.10;;;13.10;99.90;;;;;;4247811;27;20039;-53
2024/04/03 07:55:05;;;;;;;0.60;0.20;;;13.20;99.90;;;;;;4247727;27;20053;-53
2024/04/03 07:57:07;;;;;;;0.73;0.38;;;13.20;99.90;;;;;;4247665;27;20047;-54
2024/04/03 07:59:08;;;;;;;1.80;0.93;;;13.30;99.90;;;;;;4247396;27;20051;-53
2024/04/03 08:01:09;;;;;;;0.00;0.00;;;13.30;99.90;;;;;;4247366;27;20047;-53
2024/04/03 08:03:11;;;;;;;0.10;0.10;;;13.40;99.90;;;;;;4247078;27;20047;-53
2024/04/03 08:05:13;;;;;;;0.28;0.13;;;13.30;99.90;;;;;;4248364;27;20043;-55
2024/04/03 08:07:14;;;;;;;0.90;0.08;;;13.40;99.90;;;;;;4245491;27;20447;-54
2024/04/03 08:09:16;;;;;;;0.10;0.10;;;13.60;99.90;;;;;;4245387;27;20040;-55
2024/04/03 08:11:19;;;;;;;2.67;0.10;;;13.70;99.90;;;;;;4246529;27;20417;-53
2024/04/03 08:13:20;;;;;;;0.10;0.10;;;14.20;99.90;;;;;;4238329;27;20031;-51
2024/04/03 08:15:21;;;;;;;0.73;0.20;;;14.80;99.90;;;;;;4243509;27;20043;-53
2024/04/03 08:17:23;;;;;;;2.05;0.45;;;15.00;99.90;;;;;;4238352;27;20043;-50
2024/04/03 08:19:24;;;;;;;1.15;0.00;;;15.00;99.90;;;;;;4233717;27;20046;-51
2024/04/03 08:21:25;;;;;;;0.10;0.08;;;15.40;99.90;;;;;;4231639;27;20570;-51
2024/04/03 08:23:27;;;;;;;0.28;0.10;;;15.80;99.90;;;;;;4227633;28;20066;-50
2024/04/03 08:25:28;;;;;;;0.10;0.00;;;15.90;99.90;;;;;;4229366;28;20134;-56
2024/04/03 08:27:33;;;;;;;0.00;0.00;;;16.00;99.90;;;;;;4229549;28;20036;-53
2024/04/03 08:29:37;;;;;;;0.20;0.20;;;16.20;99.90;;;;;;4229339;28;20730;-54
2024/04/03 08:31:38;;;;;;;1.25;0.08;;;16.30;99.90;;;;;;4229225;28;20574;-50
2024/04/03 08:33:39;;;;;;;0.13;0.10;;;16.40;99.90;;;;;;4229461;28;20047;-53
2024/04/03 08:35:40;;;;;;;0.30;0.25;;;16.20;99.90;;;;;;4226963;28;20044;-51
2024/04/03 08:37:42;;;;;;;0.03;0.03;;;16.20;99.90;;;;;;4224523;28;20130;-52
2024/04/03 08:39:43;;;;;;;0.52;0.10;;;16.20;99.90;;;;;;4229003;28;20187;-53
2024/04/03 08:41:44;;;;;;;0.20;0.10;;;16.10;99.90;;;;;;4225624;28;20039;-51
2024/04/03 08:43:51;;;;;;;1.85;0.15;;;16.20;99.90;;;;;;4229026;28;20469;-56
2024/04/03 08:45:55;;;;;;;0.15;0.10;;;16.20;99.90;;;;;;4228918;28;20047;-52
2024/04/03 08:47:57;;;;;;;1.55;0.32;;;16.20;99.90;;;;;;4211254;28;20040;-58
2024/04/03 08:49:59;;;;;;;0.22;0.10;;;15.90;99.90;;;;;;4229118;28;20055;-57
2024/04/03 08:52:02;;;;;;;0.32;0.20;;;15.80;99.90;;;;;;4226513;28;20404;-53
2024/04/03 08:54:05;;;;;;;0.47;0.30;;;15.80;99.90;;;;;;4206501;28;20051;-55
2024/04/03 08:56:07;;;;;;;0.10;0.10;;;15.90;99.90;;;;;;4228707;28;20054;-54
2024/04/03 08:58:08;;;;;;;0.82;0.22;;;15.90;99.90;;;;;;4226330;28;20051;-54
2024/04/03 09:00:11;;;;;;;8.02;0.68;;;15.80;99.90;;;;;;4224863;28;20160;-53
2024/04/03 09:02:13;;;;;;;0.45;0.32;;;15.80;99.90;;;;;;4228748;28;20055;-54
2024/04/03 09:04:16;;;;;;;0.85;0.20;;;16.00;99.90;;;;;;4228566;28;20137;-53
2024/04/03 09:06:17;;;;;;;0.15;0.10;;;15.80;99.90;;;;;;4232473;28;20104;-53
2024/04/03 09:08:20;;;;;;;0.25;0.22;;;15.70;99.90;;;;;;4224267;28;20071;-54
2024/04/03 09:10:29;;;;;;;0.38;0.28;;;15.70;99.90;;;;;;4228409;28;20040;-54
2024/04/03 09:12:30;;;;;;;1.38;0.20;;;15.80;99.90;;;;;;4227823;28;20059;-54
2024/04/03 09:14:33;;;;;;;1.15;0.20;;;15.70;99.90;;;;;;4212226;28;20044;-54
2024/04/03 09:16:36;;;;;;;0.50;0.45;;;15.80;99.90;;;;;;4211623;28;20071;-53
2024/04/03 09:18:37;;;;;;;1.48;0.28;;;15.90;99.90;;;;;;4218598;28;20047;-54
2024/04/03 09:20:39;;;;;;;0.98;0.65;;;15.80;99.90;;;;;;4211849;28;20051;-53
2024/04/03 09:22:41;;;;;;;0.20;0.20;;;15.90;99.90;;;;;;4235062;28;20565;-56
2024/04/03 09:24:42;;;;;;;0.52;0.30;;;15.90;99.90;;;;;;4245658;28;20043;-55
2024/04/03 09:26:44;;;;;;;2.40;0.98;;;15.90;99.90;;;;;;4245361;28;20039;-54
2024/04/03 09:28:45;;;;;;;3.17;0.10;;;15.90;99.90;;;;;;4245068;28;20413;-53
2024/04/03 09:30:48;;;;;;;1.48;0.22;;;15.90;99.90;;;;;;4244997;28;20044;-54
2024/04/03 09:32:56;;;;;;;2.97;0.40;;;15.90;99.90;;;;;;4245474;28;20118;-53
2024/04/03 09:34:59;;;;;;;1.65;0.30;;;15.90;99.90;;;;;;4245451;28;20584;-55
2024/04/03 09:37:04;;;;;;;1.63;0.45;;;15.80;99.90;;;;;;4245400;28;20054;-54
2024/04/03 09:39:06;;;;;;;4.53;0.50;;;15.90;99.90;;;;;;4245361;28;20051;-56
2024/04/03 09:41:07;;;;;;;0.57;0.20;;;16.00;99.90;;;;;;4245209;27;20054;-54
2024/04/03 09:43:12;;;;;;;0.45;0.10;;;16.10;99.90;;;;;;4248829;27;20047;-59
2024/04/03 09:45:13;;;;;;;1.35;0.70;;;16.10;99.90;;;;;;4248730;27;20053;-54
2024/04/03 09:47:19;;;;;;;0.40;0.30;;;16.10;99.90;;;;;;4248516;27;20050;-51
2024/04/03 09:49:23;;;;;;;2.08;0.90;;;16.20;99.90;;;;;;4248561;27;20047;-52
2024/04/03 09:51:24;;;;;;;0.75;0.63;;;16.30;99.90;;;;;;4248303;27;20047;-51
2024/04/03 09:53:27;;;;;;;2.60;0.60;;;16.40;99.90;;;;;;4248430;27;20047;-54
2024/04/03 09:55:29;;;;;;;2.42;0.65;;;16.40;99.90;;;;;;4248721;27;20073;-50
2024/04/03 09:57:30;;;;;;;2.42;0.63;;;16.40;99.90;;;;;;4235763;27;20081;-51
2024/04/03 09:59:35;;;;;;;0.93;0.45;;;16.50;99.40;;;;;;4237070;27;20043;-54
2024/04/03 10:01:37;;;;;;;1.33;1.05;;;16.60;99.90;;;;;;4248318;27;20070;-58
2024/04/03 10:03:38;;;;;;;2.88;1.38;;;16.70;99.50;;;;;;4231249;28;20059;-60
2024/04/03 10:05:41;;;;;;;2.55;0.50;;;16.80;99.60;;;;;;4242553;27;20047;-54
2024/04/03 10:07:42;;;;;;;0.82;0.60;;;16.90;99.30;;;;;;4218987;28;20482;-56
2024/04/03 10:09:49;;;;;;;0.75;0.40;;;17.10;99.00;;;;;;4247786;27;20096;-53
2024/04/03 10:11:53;;;;;;;0.65;0.52;;;17.00;99.00;;;;;;4248063;27;20069;-54
2024/04/03 10:13:54;;;;;;;2.38;0.82;;;17.00;99.10;;;;;;4248280;27;20039;-51
2024/04/03 10:16:00;;;;;;;2.70;1.00;;;17.10;99.00;;;;;;4248131;27;20043;-53
2024/04/03 10:18:03;;;;;;;0.57;0.20;;;17.10;99.20;;;;;;4248405;27;20528;-53
2024/04/03 10:20:05;;;;;;;1.88;1.25;;;17.30;98.90;;;;;;4248317;27;20047;-57
2024/04/03 10:22:14;;;;;;;1.58;0.73;;;17.30;98.60;;;;;;4246691;27;20511;-54
2024/04/03 10:24:17;;;;;;;0.95;0.40;;;17.30;98.70;;;;;;4247513;27;20413;-60
2024/04/03 10:26:20;;;;;;;0.65;0.60;;;17.40;98.50;;;;;;4248212;27;20050;-57
2024/04/03 10:28:21;;;;;;;2.20;0.60;;;17.40;98.00;;;;;;4248437;27;20047;-59
2024/04/03 10:30:23;;;;;;;0.82;0.30;;;17.30;98.10;;;;;;4248505;27;20054;-54
2024/04/03 10:32:24;;;;;;;0.90;0.40;;;17.50;98.70;;;;;;4247745;27;20046;-53
2024/04/03 10:34:26;;;;;;;3.50;0.75;;;17.50;98.50;;;;;;4248213;27;20039;-53
2024/04/03 10:36:27;;;;;;;3.97;0.70;;;17.60;97.90;;;;;;4231036;28;20051;-53
2024/04/03 10:38:33;;;;;;;11.95;1.77;;;17.70;98.20;;;;;;4239238;27;20050;-53
2024/04/03 10:40:34;;;;;;;2.28;0.65;;;17.80;97.90;;;;;;4248512;27;20484;-53